createdAt,value
2023-01-09T00:00:47.535Z,99559.94
2023-01-09T00:03:14.425Z,99550.72
2023-01-09T00:05:40.900Z,99553.94
2023-01-09T00:08:07.769Z,99549.22
2023-01-09T00:10:34.342Z,99555.84
2023-01-09T00:13:00.755Z,99549.53
2023-01-09T00:15:27.265Z,99542.56
2023-01-09T00:17:53.777Z,99538.72
2023-01-09T00:20:20.242Z,99542.34
2023-01-09T00:22:46.677Z,99541.50
2023-01-09T00:25:13.108Z,99534.00
2023-01-09T00:27:39.586Z,99537.63
2023-01-09T00:30:07.122Z,99530.78
2023-01-09T00:32:33.473Z,99528.09
2023-01-09T00:34:59.894Z,99525.94
2023-01-09T00:38:27.735Z,99529.78
2023-01-09T00:40:55.415Z,99518.88
2023-01-09T00:43:24.293Z,99516.31
2023-01-09T00:45:51.110Z,99525.31
2023-01-09T00:48:26.480Z,99521.56
2023-01-09T00:50:56.709Z,99510.84
2023-01-09T00:53:29.539Z,99514.50
2023-01-09T00:55:59.468Z,99505.72
2023-01-09T00:58:26.027Z,99502.06
2023-01-09T01:00:52.567Z,99503.13
2023-01-09T01:03:19.347Z,99489.66
2023-01-09T01:06:04.284Z,99490.63
2023-01-09T01:08:30.810Z,99487.34
2023-01-09T01:10:57.310Z,99489.81
2023-01-09T01:13:23.742Z,99491.97
2023-01-09T01:15:50.313Z,99503.19
2023-01-09T01:18:16.883Z,99483.81
2023-01-09T01:20:44.827Z,99482.31
2023-01-09T01:23:11.760Z,99484.66
2023-01-09T01:25:39.895Z,99473.75
2023-01-09T01:28:07.427Z,99479.31
2023-01-09T01:30:37.809Z,99479.97
2023-01-09T01:33:04.248Z,99481.47
2023-01-09T01:35:30.787Z,99475.03
2023-01-09T01:37:57.185Z,99476.53
2023-01-09T01:40:23.613Z,99477.06
2023-01-09T01:42:53.222Z,99481.22
2023-01-09T01:45:22.281Z,99479.84
2023-01-09T01:47:54.630Z,99470.97
2023-01-09T01:50:37.559Z,99466.47
2023-01-09T01:53:12.945Z,99455.97
2023-01-09T01:55:47.831Z,99452.34
2023-01-09T01:58:16.129Z,99439.50
2023-01-09T02:00:45.951Z,99447.16
2023-01-09T02:03:18.261Z,99435.22
2023-01-09T02:05:45.395Z,99437.09
2023-01-09T02:08:13.949Z,99438.38
2023-01-09T02:10:41.133Z,99425.75
2023-01-09T02:13:09.053Z,99420.41
2023-01-09T02:15:52.336Z,99430.25
2023-01-09T02:18:21.747Z,99434.75
2023-01-09T02:21:14.810Z,99429.69
2023-01-09T02:24:03.254Z,99436.56
2023-01-09T02:26:43.046Z,99441.69
2023-01-09T02:29:38.478Z,99435.91
2023-01-09T02:32:27.052Z,99431.50
2023-01-09T02:35:17.045Z,99433.00
2023-01-09T02:37:49.655Z,99427.19
2023-01-09T02:40:26.709Z,99436.38
2023-01-09T02:42:56.012Z,99434.34
2023-01-09T02:45:22.606Z,99430.25
2023-01-09T02:47:49.398Z,99434.25
2023-01-09T02:50:47.821Z,99428.56
2023-01-09T02:53:44.008Z,99433.78
2023-01-09T02:56:41.271Z,99433.78
2023-01-09T02:59:20.488Z,99427.78
2023-01-09T03:01:53.203Z,99424.56
2023-01-09T03:04:41.923Z,99428.97
2023-01-09T03:07:42.168Z,99424.38
2023-01-09T03:10:26.370Z,99421.44
2023-01-09T03:12:55.309Z,99424.13
2023-01-09T03:15:28.153Z,99411.00
2023-01-09T03:17:55.803Z,99407.03
2023-01-09T03:20:28.088Z,99411.09
2023-01-09T03:22:58.907Z,99407.44
2023-01-09T03:25:28.360Z,99410.44
2023-01-09T03:28:01.107Z,99406.28
2023-01-09T03:30:29.808Z,99403.72
2023-01-09T03:32:57.281Z,99402.44
2023-01-09T03:35:24.303Z,99397.28
2023-01-09T03:37:51.775Z,99388.84
2023-01-09T03:40:19.850Z,99380.50
2023-01-09T03:42:47.265Z,99373.66
2023-01-09T03:45:14.101Z,99366.63
2023-01-09T03:47:40.607Z,99378.66
2023-01-09T03:50:08.041Z,99374.25
2023-01-09T03:52:36.027Z,99369.44
2023-01-09T03:55:05.765Z,99367.31
2023-01-09T03:57:35.333Z,99365.59
2023-01-09T04:00:02.183Z,99371.91
2023-01-09T04:02:28.763Z,99375.66
2023-01-09T04:04:55.259Z,99361.31
2023-01-09T04:07:23.203Z,99365.44
2023-01-09T04:09:49.729Z,99366.69
2023-01-09T04:12:16.419Z,99355.59
2023-01-09T04:14:42.968Z,99358.34
2023-01-09T04:17:09.798Z,99347.88
2023-01-09T04:19:36.474Z,99345.94
2023-01-09T04:22:03.243Z,99343.47
2023-01-09T04:24:29.972Z,99341.44
2023-01-09T04:26:56.737Z,99338.22
2023-01-09T04:29:23.257Z,99342.94
2023-01-09T04:31:49.865Z,99340.78
2023-01-09T04:34:16.576Z,99345.28
2023-01-09T04:36:43.171Z,99345.09
2023-01-09T04:39:10.175Z,99342.03
2023-01-09T04:41:51.870Z,99337.88
2023-01-09T04:44:27.520Z,99327.63
2023-01-09T04:46:55.827Z,99335.00
2023-01-09T04:49:23.231Z,99325.81
2023-01-09T04:51:49.910Z,99320.44
2023-01-09T04:54:17.129Z,99326.25
2023-01-09T04:56:44.171Z,99322.06
2023-01-09T04:59:10.798Z,99321.84
2023-01-09T05:01:37.779Z,99327.94
2023-01-09T05:04:05.501Z,99332.00
2023-01-09T05:06:32.163Z,99314.03
2023-01-09T05:08:59.103Z,99319.41
2023-01-09T05:11:28.564Z,99319.63
2023-01-09T05:13:55.592Z,99330.44
2023-01-09T05:16:22.320Z,99327.75
2023-01-09T05:18:49.108Z,99323.16
2023-01-09T05:21:15.671Z,99315.34
2023-01-09T05:23:42.153Z,99311.81
2023-01-09T05:26:08.739Z,99311.78
2023-01-09T05:28:35.194Z,99300.22
2023-01-09T05:31:04.346Z,99305.16
2023-01-09T05:33:30.990Z,99302.28
2023-01-09T05:35:59.123Z,99304.75
2023-01-09T05:38:25.660Z,99301.84
2023-01-09T05:40:52.535Z,99295.00
2023-01-09T05:43:19.050Z,99291.56
2023-01-09T05:45:47.979Z,99287.06
2023-01-09T05:48:14.507Z,99289.75
2023-01-09T05:50:41.208Z,99285.56
2023-01-09T05:53:07.976Z,99287.28
2023-01-09T05:55:34.845Z,99294.56
2023-01-09T05:58:01.648Z,99293.28
2023-01-09T06:00:28.415Z,99288.78
2023-01-09T06:02:55.029Z,99295.22
2023-01-09T06:05:21.667Z,99287.94
2023-01-09T06:07:48.178Z,99289.00
2023-01-09T06:10:15.475Z,99289.00
2023-01-09T06:12:46.240Z,99284.94
2023-01-09T06:15:12.709Z,99286.41
2023-01-09T06:17:39.159Z,99281.53
2023-01-09T06:20:06.163Z,99276.28
2023-01-09T06:22:32.600Z,99277.03
2023-01-09T06:24:59.264Z,99287.50
2023-01-09T06:27:25.757Z,99273.16
2023-01-09T06:29:52.320Z,99271.47
2023-01-09T06:32:18.851Z,99275.50
2023-01-09T06:34:45.564Z,99268.78
2023-01-09T06:37:12.278Z,99271.78
2023-01-09T06:39:38.745Z,99273.28
2023-01-09T06:42:05.576Z,99271.78
2023-01-09T06:44:33.154Z,99274.97
2023-01-09T06:46:59.799Z,99266.84
2023-01-09T06:49:26.844Z,99269.09
2023-01-09T06:51:53.756Z,99268.88
2023-01-09T06:54:21.203Z,99262.66
2023-01-09T06:56:47.747Z,99257.00
2023-01-09T06:59:14.353Z,99260.75
2023-01-09T07:01:41.030Z,99259.16
2023-01-09T07:04:10.558Z,99259.03
2023-01-09T07:06:37.353Z,99259.03
2023-01-09T07:09:06.025Z,99256.03
2023-01-09T07:11:33.247Z,99253.88
2023-01-09T07:14:00.018Z,99251.00
2023-01-09T07:16:26.566Z,99244.69
2023-01-09T07:18:54.888Z,99242.66
2023-01-09T07:21:21.447Z,99245.09
2023-01-09T07:23:48.195Z,99245.75
2023-01-09T07:26:17.787Z,99240.63
2023-01-09T07:28:44.212Z,99244.03
2023-01-09T07:31:10.763Z,99247.22
2023-01-09T07:33:37.382Z,99249.72
2023-01-09T07:36:04.026Z,99255.59
2023-01-09T07:38:33.212Z,99256.44
2023-01-09T07:40:59.744Z,99263.31
2023-01-09T07:43:26.290Z,99259.03
2023-01-09T07:45:52.778Z,99267.19
2023-01-09T07:48:19.236Z,99261.59
2023-01-09T07:50:45.807Z,99260.13
2023-01-09T07:53:12.301Z,99264.81
2023-01-09T07:55:38.923Z,99259.69
2023-01-09T07:58:05.598Z,99264.69
2023-01-09T08:00:33.242Z,99267.69
2023-01-09T08:02:59.937Z,99274.22
2023-01-09T08:05:26.592Z,99270.16
2023-01-09T08:07:53.405Z,99279.69
2023-01-09T08:10:19.904Z,99279.34
2023-01-09T08:12:47.724Z,99270.34
2023-01-09T08:15:14.649Z,99276.38
2023-01-09T08:17:42.765Z,99267.50
2023-01-09T08:20:14.366Z,99273.69
2023-01-09T08:22:50.534Z,99278.94
2023-01-09T08:25:18.408Z,99273.25
2023-01-09T08:27:45.094Z,99277.41
2023-01-09T08:30:12.698Z,99276.78
2023-01-09T08:32:39.553Z,99281.28
2023-01-09T08:35:06.645Z,99272.91
2023-01-09T08:37:33.410Z,99285.13
2023-01-09T08:39:59.832Z,99278.16
2023-01-09T08:42:45.143Z,99282.31
2023-01-09T08:45:31.165Z,99278.34
2023-01-09T08:47:57.874Z,99292.47
2023-01-09T08:50:24.346Z,99295.25
2023-01-09T08:52:50.752Z,99300.22
2023-01-09T08:55:17.166Z,99309.09
2023-01-09T08:57:51.107Z,99302.25
2023-01-09T09:00:19.786Z,99302.25
2023-01-09T09:02:50.415Z,99302.03
2023-01-09T09:05:17.276Z,99304.94
2023-01-09T09:07:43.793Z,99310.41
2023-01-09T09:10:10.929Z,99313.81
2023-01-09T09:12:37.624Z,99309.31
2023-01-09T09:15:13.494Z,99315.84
2023-01-09T09:17:44.594Z,99310.59
2023-01-09T09:20:11.998Z,99304.16
2023-01-09T09:22:38.881Z,99310.38
2023-01-09T09:25:06.065Z,99314.22
2023-01-09T09:27:33.451Z,99315.19
2023-01-09T09:29:59.921Z,99312.94
2023-01-09T09:32:26.338Z,99319.13
2023-01-09T09:34:52.765Z,99321.50
2023-01-09T09:37:19.271Z,99329.19
2023-01-09T09:39:45.833Z,99334.31
2023-01-09T09:42:40.405Z,99329.19
2023-01-09T09:45:18.987Z,99325.09
2023-01-09T09:48:30.052Z,99327.47
2023-01-09T09:51:04.562Z,99324.69
2023-01-09T09:54:14.041Z,99324.56
2023-01-09T09:57:12.431Z,99329.66
2023-01-09T09:59:42.324Z,99331.03
2023-01-09T10:02:08.726Z,99337.41
2023-01-09T10:04:39.782Z,99343.50
2023-01-09T10:07:14.382Z,99335.81
2023-01-09T10:09:54.381Z,99341.06
2023-01-09T10:12:28.715Z,99339.19
2023-01-09T10:14:57.671Z,99348.38
2023-01-09T10:17:45.415Z,99347.69
2023-01-09T10:20:48.144Z,99338.56
2023-01-09T10:23:47.087Z,99348.94
2023-01-09T10:26:49.843Z,99344.56
2023-01-09T10:29:22.616Z,99350.19
2023-01-09T10:31:56.327Z,99351.28
2023-01-09T10:34:41.513Z,99357.03
2023-01-09T10:37:15.447Z,99357.38
2023-01-09T10:39:52.398Z,99362.34
2023-01-09T10:42:47.809Z,99357.22
2023-01-09T10:45:23.975Z,99365.31
2023-01-09T10:47:50.577Z,99368.59
2023-01-09T10:50:35.080Z,99369.41
2023-01-09T10:53:13.557Z,99371.97
2023-01-09T10:55:47.787Z,99375.41
2023-01-09T10:58:17.900Z,99384.00
2023-01-09T11:00:46.557Z,99380.53
2023-01-09T11:03:17.948Z,99379.94
2023-01-09T11:05:59.253Z,99380.41
2023-01-09T11:08:35.323Z,99393.13
2023-01-09T11:11:11.869Z,99400.56
2023-01-09T11:13:53.371Z,99398.19
2023-01-09T11:16:21.920Z,99401.59
2023-01-09T11:18:57.710Z,99400.78
2023-01-09T11:21:56.696Z,99394.94
2023-01-09T11:24:29.271Z,99393.63
2023-01-09T11:27:23.823Z,99403.06
2023-01-09T11:30:22.351Z,99408.78
2023-01-09T11:32:49.291Z,99412.59
2023-01-09T11:35:34.120Z,99422.88
2023-01-09T11:38:05.383Z,99421.41
2023-01-09T11:40:48.171Z,99432.28
2023-01-09T11:43:33.143Z,99432.03
2023-01-09T11:46:05.100Z,99438.03
2023-01-09T11:48:31.501Z,99445.13
2023-01-09T11:51:01.618Z,99441.53
2023-01-09T11:53:30.445Z,99435.81
2023-01-09T11:56:03.684Z,99440.78
2023-01-09T11:58:37.193Z,99431.16
2023-01-09T12:01:08.712Z,99436.63
2023-01-09T12:03:59.303Z,99450.91
2023-01-09T12:07:04.654Z,99453.25
2023-01-09T12:09:34.267Z,99451.81
2023-01-09T12:12:01.421Z,99459.13
2023-01-09T12:15:10.098Z,99461.22
2023-01-09T12:18:10.043Z,99463.09
2023-01-09T12:20:39.839Z,99479.13
2023-01-09T12:23:21.205Z,99476.16
2023-01-09T12:25:50.764Z,99470.16
2023-01-09T12:28:42.621Z,99473.16
2023-01-09T12:31:23.800Z,99471.03
2023-01-09T12:34:12.225Z,99463.63
2023-01-09T12:36:51.774Z,99467.75
2023-01-09T12:40:02.179Z,99464.56
2023-01-09T12:42:45.404Z,99474.47
2023-01-09T12:45:34.645Z,99474.03
2023-01-09T12:48:26.519Z,99478.31
2023-01-09T12:51:23.949Z,99479.44
2023-01-09T12:54:19.701Z,99481.44
2023-01-09T12:56:55.821Z,99480.47
2023-01-09T12:59:30.736Z,99481.44
2023-01-09T13:02:09.113Z,99484.00
2023-01-09T13:04:43.972Z,99486.69
2023-01-09T13:07:22.705Z,99492.00
2023-01-09T13:09:59.681Z,99482.19
2023-01-09T13:12:32.607Z,99492.06
2023-01-09T13:15:07.227Z,99492.16
2023-01-09T13:17:42.335Z,99496.25
2023-01-09T13:20:33.675Z,99501.50
2023-01-09T13:23:05.095Z,99495.28
2023-01-09T13:25:47.937Z,99502.47
2023-01-09T13:28:32.493Z,99495.50
2023-01-09T13:31:01.768Z,99498.19
2023-01-09T13:33:35.891Z,99501.94
2023-01-09T13:36:03.503Z,99499.03
2023-01-09T13:38:32.541Z,99489.03
2023-01-09T13:41:26.091Z,99494.59
2023-01-09T13:43:54.244Z,99493.50
2023-01-09T13:46:20.896Z,99487.72
2023-01-09T13:48:50.713Z,99495.44
2023-01-09T13:51:37.997Z,99503.84
2023-01-09T13:54:08.404Z,99506.28
2023-01-09T13:57:28.711Z,99510.47
2023-01-09T14:00:19.112Z,99520.91
2023-01-09T14:02:49.650Z,99523.59
2023-01-09T14:05:25.351Z,99532.78
2023-01-09T14:08:03.147Z,99536.66
2023-01-09T14:10:35.314Z,99546.88
2023-01-09T14:13:08.267Z,99551.16
2023-01-09T14:15:39.413Z,99550.59
2023-01-09T14:18:15.950Z,99565.94
2023-01-09T14:20:57.141Z,99555.72
2023-01-09T14:23:45.965Z,99572.00
2023-01-09T14:26:25.661Z,99573.50
2023-01-09T14:28:55.003Z,99583.78
2023-01-09T14:31:32.255Z,99586.22
2023-01-09T14:34:31.424Z,99587.00
2023-01-09T14:37:01.572Z,99592.56
2023-01-09T14:39:32.028Z,99599.22
2023-01-09T14:42:07.890Z,99593.97
2023-01-09T14:44:43.190Z,99597.50
2023-01-09T14:47:15.838Z,99597.94
2023-01-09T14:50:06.997Z,99605.25
2023-01-09T14:52:38.956Z,99598.25
2023-01-09T14:55:40.008Z,99611.25
2023-01-09T14:58:17.683Z,99605.03
2023-01-09T15:00:53.732Z,99613.41
2023-01-09T15:03:22.460Z,99618.25
2023-01-09T15:05:49.420Z,99611.16
2023-01-09T15:08:22.555Z,99617.06
2023-01-09T15:10:52.467Z,99620.72
2023-01-09T15:13:28.270Z,99618.13
2023-01-09T15:15:55.185Z,99627.03
2023-01-09T15:18:25.644Z,99625.34
2023-01-09T15:20:56.676Z,99627.91
2023-01-09T15:23:29.238Z,99633.03
2023-01-09T15:26:17.196Z,99633.69
2023-01-09T15:28:43.977Z,99640.59
2023-01-09T15:31:15.953Z,99652.69
2023-01-09T15:33:45.128Z,99652.94
2023-01-09T15:36:18.710Z,99651.00
2023-01-09T15:38:46.785Z,99660.19
2023-01-09T15:41:37.468Z,99652.66
2023-01-09T15:44:06.766Z,99656.75
2023-01-09T15:46:33.269Z,99656.41
2023-01-09T15:49:00.284Z,99658.59
2023-01-09T15:51:27.341Z,99665.16
2023-01-09T15:53:57.397Z,99664.94
2023-01-09T15:56:25.556Z,99669.84
2023-01-09T15:58:54.201Z,99667.63
2023-01-09T16:01:31.263Z,99664.69
2023-01-09T16:04:03.729Z,99673.09
2023-01-09T16:06:33.362Z,99676.66
2023-01-09T16:09:00.821Z,99674.59
2023-01-09T16:11:32.576Z,99685.16
2023-01-09T16:14:14.522Z,99691.59
2023-01-09T16:16:44.258Z,99703.94
2023-01-09T16:19:44.084Z,99697.38
2023-01-09T16:22:21.697Z,99695.31
2023-01-09T16:24:49.370Z,99692.75
2023-01-09T16:27:27.027Z,99695.44
2023-01-09T16:29:57.847Z,99695.31
2023-01-09T16:32:29.423Z,99694.06
2023-01-09T16:35:04.686Z,99703.19
2023-01-09T16:37:32.315Z,99702.97
2023-01-09T16:40:08.219Z,99696.53
2023-01-09T16:42:53.478Z,99697.59
2023-01-09T16:45:31.276Z,99703.50
2023-01-09T16:47:58.246Z,99710.06
2023-01-09T16:50:29.854Z,99708.97
2023-01-09T16:52:57.851Z,99708.47
2023-01-09T16:55:24.600Z,99712.22
2023-01-09T16:57:51.623Z,99719.88
2023-01-09T17:00:20.694Z,99724.25
2023-01-09T17:02:51.026Z,99725.75
2023-01-09T17:05:17.655Z,99725.13
2023-01-09T17:07:52.447Z,99720.50
2023-01-09T17:10:24.166Z,99719.97
2023-01-09T17:12:50.868Z,99720.41
2023-01-09T17:15:17.971Z,99715.69
2023-01-09T17:17:44.916Z,99711.50
2023-01-09T17:20:18.346Z,99719.66
2023-01-09T17:22:44.946Z,99721.50
2023-01-09T17:25:37.690Z,99725.03
2023-01-09T17:28:24.416Z,99725.34
2023-01-09T17:30:51.169Z,99724.25
2023-01-09T17:33:19.185Z,99716.88
2023-01-09T17:35:46.157Z,99723.00
2023-01-09T17:38:15.485Z,99716.78
2023-01-09T17:40:42.815Z,99718.28
2023-01-09T17:43:09.618Z,99722.16
2023-01-09T17:45:43.318Z,99722.91
2023-01-09T17:48:21.993Z,99727.06
2023-01-09T17:50:52.333Z,99731.59
2023-01-09T17:53:20.640Z,99731.47
2023-01-09T17:55:50.980Z,99735.66
2023-01-09T17:58:30.391Z,99737.69
2023-01-09T18:00:58.292Z,99754.78
2023-01-09T18:03:30.844Z,99749.84
2023-01-09T18:05:57.387Z,99750.25
2023-01-09T18:08:23.989Z,99761.00
2023-01-09T18:10:53.748Z,99759.72
2023-01-09T18:13:23.263Z,99761.75
2023-01-09T18:15:54.930Z,99758.53
2023-01-09T18:18:22.462Z,99761.53
2023-01-09T18:20:50.079Z,99759.50
2023-01-09T18:23:16.776Z,99767.75
2023-01-09T18:25:44.104Z,99773.34
2023-01-09T18:28:15.164Z,99777.44
2023-01-09T18:30:45.096Z,99780.97
2023-01-09T18:33:12.877Z,99777.97
2023-01-09T18:35:43.279Z,99778.19
2023-01-09T18:38:11.361Z,99781.59
2023-01-09T18:40:38.253Z,99791.69
2023-01-09T18:43:05.954Z,99794.16
2023-01-09T18:45:32.958Z,99799.44
2023-01-09T18:47:59.796Z,99803.28
2023-01-09T18:50:26.391Z,99810.69
2023-01-09T18:52:54.348Z,99809.94
2023-01-09T18:55:21.911Z,99805.34
2023-01-09T18:57:48.853Z,99817.47
2023-01-09T19:00:15.907Z,99815.75
2023-01-09T19:02:42.329Z,99822.81
2023-01-09T19:05:11.303Z,99831.84
2023-01-09T19:07:37.834Z,99821.97
2023-01-09T19:10:04.763Z,99831.41
2023-01-09T19:12:31.217Z,99834.41
2023-01-09T19:14:57.612Z,99830.66
2023-01-09T19:17:24.062Z,99837.09
2023-01-09T19:19:50.443Z,99837.59
2023-01-09T19:22:16.923Z,99838.91
2023-01-09T19:24:43.454Z,99841.25
2023-01-09T19:27:09.880Z,99844.50
2023-01-09T19:29:37.020Z,99844.72
2023-01-09T19:32:04.552Z,99844.94
2023-01-09T19:34:31.111Z,99841.94
2023-01-09T19:36:57.599Z,99849.34
2023-01-09T19:39:24.366Z,99858.25
2023-01-09T19:41:51.072Z,99865.53
2023-01-09T19:44:18.951Z,99856.53
2023-01-09T19:46:45.457Z,99855.03
2023-01-09T19:49:11.877Z,99862.88
2023-01-09T19:51:38.586Z,99868.34
2023-01-09T19:54:07.694Z,99869.28
2023-01-09T19:56:40.569Z,99870.06
2023-01-09T19:59:08.061Z,99872.63
2023-01-09T20:01:37.268Z,99871.13
2023-01-09T20:04:09.945Z,99872.63
2023-01-09T20:06:41.440Z,99884.22
2023-01-09T20:09:08.521Z,99885.63
2023-01-09T20:11:35.105Z,99883.28
2023-01-09T20:14:01.630Z,99886.47
2023-01-09T20:16:30.708Z,99877.16
2023-01-09T20:18:59.275Z,99877.56
2023-01-09T20:21:27.805Z,99880.25
2023-01-09T20:23:56.637Z,99880.81
2023-01-09T20:26:24.617Z,99887.03
2023-01-09T20:28:52.237Z,99884.56
2023-01-09T20:31:20.823Z,99887.47
2023-01-09T20:33:48.842Z,99888.09
2023-01-09T20:36:15.880Z,99893.69
2023-01-09T20:38:43.283Z,99902.28
2023-01-09T20:41:12.703Z,99908.28
2023-01-09T20:43:40.181Z,99908.91
2023-01-09T20:46:07.611Z,99920.09
2023-01-09T20:48:34.123Z,99922.34
2023-01-09T20:51:05.896Z,99919.34
2023-01-09T20:53:32.460Z,99924.25
2023-01-09T20:56:01.279Z,99923.75
2023-01-09T20:58:28.720Z,99930.69
2023-01-09T21:00:55.720Z,99929.53
2023-01-09T21:03:22.787Z,99938.97
2023-01-09T21:05:49.319Z,99943.69
2023-01-09T21:08:16.071Z,99953.88
2023-01-09T21:10:42.551Z,99956.16
2023-01-09T21:13:09.229Z,99963.25
2023-01-09T21:15:37.706Z,99968.41
2023-01-09T21:18:04.432Z,99958.75
2023-01-09T21:20:30.866Z,99963.03
2023-01-09T21:22:57.325Z,99966.69
2023-01-09T21:25:23.778Z,99971.94
2023-01-09T21:27:51.324Z,99973.47
2023-01-09T21:30:17.706Z,99976.13
2023-01-09T21:32:44.121Z,99982.16
2023-01-09T21:35:10.558Z,99987.13
2023-01-09T21:37:37.201Z,99997.75
2023-01-09T21:40:06.683Z,99999.03
2023-01-09T21:42:51.453Z,99999.22
2023-01-09T21:45:36.701Z,100006.56
2023-01-09T21:48:06.902Z,100012.25
2023-01-09T21:50:34.125Z,100010.41
2023-01-09T21:53:00.666Z,100017.38
2023-01-09T21:55:27.183Z,100021.72
2023-01-09T21:57:55.947Z,100021.25
2023-01-09T22:00:23.508Z,100030.63
2023-01-09T22:02:50.396Z,100027.38
2023-01-09T22:05:17.308Z,100037.25
2023-01-09T22:07:43.725Z,100049.06
2023-01-09T22:10:10.650Z,100051.53
2023-01-09T22:12:37.389Z,100063.34
2023-01-09T22:15:04.802Z,100071.50
2023-01-09T22:17:31.394Z,100073.13
2023-01-09T22:19:57.796Z,100075.91
2023-01-09T22:22:24.282Z,100082.25
2023-01-09T22:24:51.368Z,100084.94
2023-01-09T22:27:17.764Z,100083.66
2023-01-09T22:29:48.899Z,100084.38
2023-01-09T22:32:15.365Z,100083.06
2023-01-09T22:34:41.761Z,100094.44
2023-01-09T22:37:08.430Z,100096.56
2023-01-09T22:39:37.089Z,100103.56
2023-01-09T22:42:03.652Z,100102.41
2023-01-09T22:44:30.294Z,100106.41
2023-01-09T22:46:58.291Z,100107.38
2023-01-09T22:49:30.253Z,100118.47
2023-01-09T22:51:59.830Z,100123.66
2023-01-09T22:54:26.338Z,100130.97
2023-01-09T22:56:52.725Z,100139.56
2023-01-09T22:59:19.344Z,100145.94
2023-01-09T23:01:46.372Z,100138.91
2023-01-09T23:04:15.944Z,100146.50
2023-01-09T23:06:43.389Z,100150.53
2023-01-09T23:09:10.065Z,100149.84
2023-01-09T23:11:54.836Z,100151.22
2023-01-09T23:14:21.927Z,100154.56
2023-01-09T23:16:48.428Z,100149.88
2023-01-09T23:19:15.494Z,100152.94
2023-01-09T23:21:43.541Z,100153.31
2023-01-09T23:24:11.514Z,100158.19
2023-01-09T23:26:40.864Z,100164.81
2023-01-09T23:29:07.702Z,100166.56
2023-01-09T23:31:34.659Z,100171.63
2023-01-09T23:34:01.409Z,100172.78
2023-01-09T23:36:28.118Z,100173.53
2023-01-09T23:38:54.555Z,100173.34
2023-01-09T23:41:22.427Z,100184.66
2023-01-09T23:43:48.831Z,100179.22
2023-01-09T23:46:15.280Z,100182.84
2023-01-09T23:48:41.747Z,100193.78
2023-01-09T23:51:08.267Z,100194.63
2023-01-09T23:53:34.764Z,100201.72
2023-01-09T23:56:01.601Z,100214.69
2023-01-09T23:58:27.970Z,100220.19
